Time;durP1;ratioP1;P1;durP2;ratioP2;P2;SDS_P1;SDS_P2;PMS_P1;PMS_P2;Temp;Humidity;BMP_temperature;BMP_pressure;BME280_temperature;BME280_humidity;BME280_pressure;Samples;Min_cycle;Max_cycle;Signal;HPM_P1;HPM_P2
2021/06/06 00:02:00;;;;;;;56.63;41.95;;;;;;;;;;5016705;28;20366;-65
2021/06/06 00:04:26;;;;;;;60.13;41.80;;;;;;;;;;5016780;28;20040;-65
2021/06/06 00:06:53;;;;;;;57.85;38.97;;;;;;;;;;5016563;28;20113;-65
2021/06/06 00:09:20;;;;;;;56.88;41.35;;;;;;;;;;5034466;28;20029;-65
2021/06/06 00:11:48;;;;;;;56.92;41.47;;;;;;;;;;5016469;28;20489;-64
2021/06/06 00:14:17;;;;;;;55.42;38.00;;;;;;;;;;5034507;28;20393;-65
2021/06/06 00:16:45;;;;;;;56.95;39.67;;;;;;;;;;5035132;28;20502;-64
2021/06/06 00:19:12;;;;;;;59.00;40.75;;;;;;;;;;5017169;28;20034;-65
2021/06/06 00:21:38;;;;;;;54.63;35.03;;;;;;;;;;5016796;28;20049;-65
2021/06/06 00:24:06;;;;;;;60.10;40.03;;;;;;;;;;5034212;28;20473;-65
2021/06/06 00:26:32;;;;;;;58.28;40.88;;;;;;;;;;5016182;28;20059;-65
2021/06/06 00:28:58;;;;;;;56.80;38.38;;;;;;;;;;5016764;28;20025;-64
2021/06/06 00:31:24;;;;;;;57.85;38.33;;;;;;;;;;5016705;28;20029;-65
2021/06/06 00:33:50;;;;;;;57.17;39.22;;;;;;;;;;5017185;28;20029;-65
2021/06/06 00:36:16;;;;;;;54.67;37.50;;;;;;;;;;5034861;28;20021;-65
2021/06/06 00:38:42;;;;;;;55.08;38.75;;;;;;;;;;5017051;28;20033;-65
2021/06/06 00:41:09;;;;;;;51.67;36.40;;;;;;;;;;5034668;28;20067;-65
2021/06/06 00:43:35;;;;;;;51.97;33.00;;;;;;;;;;5016969;28;20049;-65
2021/06/06 00:46:02;;;;;;;55.47;39.42;;;;;;;;;;5034614;28;20028;-65
2021/06/06 00:48:28;;;;;;;62.30;38.83;;;;;;;;;;5017208;28;20152;-64
2021/06/06 00:50:56;;;;;;;51.22;36.75;;;;;;;;;;5016690;28;20164;-64
2021/06/06 00:53:33;;;;;;;51.63;34.60;;;;;;;;;;5033969;28;20053;-65
2021/06/06 00:55:59;;;;;;;44.97;30.83;;;;;;;;;;5033402;28;20026;-65
2021/06/06 00:58:25;;;;;;;49.30;35.20;;;;;;;;;;5033455;28;20032;-65
2021/06/06 01:00:53;;;;;;;42.63;30.95;;;;;;;;;;5016465;28;20025;-64
2021/06/06 01:03:22;;;;;;;47.17;33.58;;;;;;;;;;5015557;28;20408;-64
2021/06/06 01:05:52;;;;;;;51.17;33.67;;;;;;;;;;5032718;28;20071;-65
2021/06/06 01:08:20;;;;;;;49.72;33.22;;;;;;;;;;5033503;28;20020;-64
2021/06/06 01:10:47;;;;;;;53.85;36.25;;;;;;;;;;5033523;28;20043;-64
2021/06/06 01:13:19;;;;;;;52.42;36.13;;;;;;;;;;5033164;28;20040;-64
2021/06/06 01:15:48;;;;;;;52.92;37.30;;;;;;;;;;5015594;28;20013;-64
2021/06/06 01:18:14;;;;;;;;;;;;;;;;;;5015925;28;20021;-64
2021/06/06 01:20:53;;;;;;;49.67;32.95;;;;;;;;;;5015456;28;19940;-64
2021/06/06 01:23:28;;;;;;;56.72;37.47;;;;;;;;;;5015533;28;20053;-65
2021/06/06 01:25:57;;;;;;;50.47;33.13;;;;;;;;;;5033631;28;20113;-64
2021/06/06 01:28:27;;;;;;;50.88;35.30;;;;;;;;;;5030229;23;20427;-65
2021/06/06 01:30:55;;;;;;;54.63;36.85;;;;;;;;;;5032401;28;20025;-62
2021/06/06 01:33:27;;;;;;;55.13;39.90;;;;;;;;;;5014287;28;20087;-61
2021/06/06 01:36:02;;;;;;;61.75;35.90;;;;;;;;;;5014928;28;20029;-61
2021/06/06 01:38:28;;;;;;;48.08;34.28;;;;;;;;;;5014430;28;20021;-60
2021/06/06 01:40:56;;;;;;;49.90;35.10;;;;;;;;;;5032433;28;20588;-60
2021/06/06 01:43:24;;;;;;;51.28;34.28;;;;;;;;;;5014226;28;20187;-62
2021/06/06 01:45:55;;;;;;;46.70;34.03;;;;;;;;;;5032361;28;20108;-65
2021/06/06 01:48:21;;;;;;;47.03;32.20;;;;;;;;;;5032282;28;20481;-62
2021/06/06 01:50:50;;;;;;;44.97;31.02;;;;;;;;;;5031802;28;20026;-62
2021/06/06 01:53:17;;;;;;;51.35;34.00;;;;;;;;;;5031668;28;20091;-64
2021/06/06 01:55:45;;;;;;;49.58;33.45;;;;;;;;;;5032024;28;20025;-61
2021/06/06 01:58:13;;;;;;;54.10;36.20;;;;;;;;;;5013520;28;20555;-58
2021/06/06 02:00:48;;;;;;;46.45;29.17;;;;;;;;;;5031850;28;20025;-60
2021/06/06 02:03:14;;;;;;;45.88;30.80;;;;;;;;;;5014061;28;20473;-62
2021/06/06 02:05:41;;;;;;;46.85;31.30;;;;;;;;;;5013822;28;20485;-62
2021/06/06 02:08:09;;;;;;;46.45;30.50;;;;;;;;;;5013445;28;20021;-60
2021/06/06 02:10:40;;;;;;;41.30;27.27;;;;;;;;;;5031646;28;20087;-62
2021/06/06 02:13:15;;;;;;;40.70;28.80;;;;;;;;;;5031582;28;20033;-63
2021/06/06 02:15:41;;;;;;;39.90;27.75;;;;;;;;;;5031612;28;20029;-63
2021/06/06 02:18:08;;;;;;;36.90;26.05;;;;;;;;;;5030597;28;20112;-63
2021/06/06 02:20:36;;;;;;;44.15;30.05;;;;;;;;;;5031411;28;20504;-62
2021/06/06 02:23:02;;;;;;;43.53;29.43;;;;;;;;;;5013540;28;20374;-63
2021/06/06 02:25:28;;;;;;;41.38;29.85;;;;;;;;;;5031476;28;20735;-62
2021/06/06 02:27:57;;;;;;;41.72;30.27;;;;;;;;;;5013295;28;20299;-62
2021/06/06 02:30:27;;;;;;;41.80;28.70;;;;;;;;;;5031350;28;20029;-61
2021/06/06 02:33:00;;;;;;;43.05;28.67;;;;;;;;;;5013276;28;20124;-63
2021/06/06 02:35:30;;;;;;;41.35;29.98;;;;;;;;;;5013655;28;20397;-65
2021/06/06 02:38:07;;;;;;;46.33;29.83;;;;;;;;;;5031243;28;20030;-61
2021/06/06 02:40:36;;;;;;;41.15;28.40;;;;;;;;;;5031186;28;20029;-64
2021/06/06 02:43:28;;;;;;;41.78;30.08;;;;;;;;;;5031102;28;20025;-63
2021/06/06 02:45:56;;;;;;;42.25;31.60;;;;;;;;;;5009976;28;20402;-63
2021/06/06 02:48:28;;;;;;;49.13;34.60;;;;;;;;;;5013602;28;20026;-63
2021/06/06 02:50:57;;;;;;;46.72;30.25;;;;;;;;;;5031122;28;20028;-64
2021/06/06 02:53:26;;;;;;;48.33;34.30;;;;;;;;;;5030858;28;20147;-63
2021/06/06 02:55:54;;;;;;;52.83;36.60;;;;;;;;;;5013370;28;20028;-63
2021/06/06 02:58:23;;;;;;;56.67;38.90;;;;;;;;;;5030966;28;20025;-64
2021/06/06 03:00:53;;;;;;;51.13;37.00;;;;;;;;;;5030773;28;20036;-63
2021/06/06 03:03:22;;;;;;;50.88;35.65;;;;;;;;;;5030799;28;20059;-63
2021/06/06 03:05:49;;;;;;;57.35;37.15;;;;;;;;;;5013581;28;20025;-65
2021/06/06 03:08:15;;;;;;;52.58;36.35;;;;;;;;;;5012743;28;20026;-62
2021/06/06 03:10:42;;;;;;;55.70;37.00;;;;;;;;;;5012274;28;20143;-63
2021/06/06 03:13:12;;;;;;;59.35;39.05;;;;;;;;;;5029687;28;20028;-65
2021/06/06 03:15:40;;;;;;;55.85;36.05;;;;;;;;;;5012568;28;20037;-62
2021/06/06 03:18:07;;;;;;;55.65;37.75;;;;;;;;;;5030460;28;20083;-62
2021/06/06 03:20:35;;;;;;;57.00;37.60;;;;;;;;;;5030986;28;20033;-64
2021/06/06 03:23:02;;;;;;;53.65;37.33;;;;;;;;;;5030624;28;20119;-63
2021/06/06 03:25:32;;;;;;;56.25;38.30;;;;;;;;;;5012775;28;20065;-62
2021/06/06 03:27:59;;;;;;;55.15;37.17;;;;;;;;;;5012441;28;20053;-64
2021/06/06 03:30:27;;;;;;;54.20;37.42;;;;;;;;;;5030547;28;20529;-63
2021/06/06 03:32:54;;;;;;;50.97;34.85;;;;;;;;;;5030548;28;20048;-63
2021/06/06 03:35:20;;;;;;;52.67;36.83;;;;;;;;;;5030707;28;20128;-63
2021/06/06 03:37:46;;;;;;;56.03;37.08;;;;;;;;;;5012954;28;20029;-61
2021/06/06 03:40:12;;;;;;;55.05;39.65;;;;;;;;;;5030800;28;20036;-62
2021/06/06 03:42:39;;;;;;;51.95;37.25;;;;;;;;;;5030458;28;20017;-64
2021/06/06 03:45:09;;;;;;;49.28;35.13;;;;;;;;;;5030359;28;20095;-63
2021/06/06 03:47:35;;;;;;;51.53;37.53;;;;;;;;;;5012785;28;20021;-63
2021/06/06 03:50:01;;;;;;;53.05;38.92;;;;;;;;;;5012704;28;20305;-62
2021/06/06 03:52:33;;;;;;;58.13;37.70;;;;;;;;;;5012486;28;20095;-63
2021/06/06 03:54:59;;;;;;;51.58;38.67;;;;;;;;;;5030420;28;20555;-64
2021/06/06 03:57:25;;;;;;;46.30;35.42;;;;;;;;;;5030057;28;20033;-64
2021/06/06 03:59:51;;;;;;;53.25;34.80;;;;;;;;;;5029871;28;20030;-63
2021/06/06 04:02:20;;;;;;;49.90;35.92;;;;;;;;;;5030106;28;20367;-63
2021/06/06 04:04:46;;;;;;;49.28;34.95;;;;;;;;;;5012606;28;20026;-64
2021/06/06 04:07:12;;;;;;;50.00;32.92;;;;;;;;;;5030132;28;20470;-65
2021/06/06 04:09:38;;;;;;;50.95;34.95;;;;;;;;;;5030267;28;20076;-63
2021/06/06 04:12:04;;;;;;;43.22;31.55;;;;;;;;;;5030053;28;20401;-64
2021/06/06 04:14:30;;;;;;;44.72;32.10;;;;;;;;;;5030547;28;20388;-64
2021/06/06 04:16:56;;;;;;;46.40;32.75;;;;;;;;;;5012817;28;20164;-64
2021/06/06 04:19:22;;;;;;;46.58;35.35;;;;;;;;;;5029922;28;20026;-65
2021/06/06 04:21:48;;;;;;;49.50;31.83;;;;;;;;;;5012318;28;20124;-64
2021/06/06 04:24:15;;;;;;;43.47;33.80;;;;;;;;;;5012399;28;20449;-63
2021/06/06 04:26:41;;;;;;;46.88;32.17;;;;;;;;;;5012254;28;20094;-64
2021/06/06 04:29:08;;;;;;;44.53;30.75;;;;;;;;;;5029860;28;20497;-64
2021/06/06 04:31:35;;;;;;;39.40;30.33;;;;;;;;;;5029896;28;20040;-64
2021/06/06 04:34:01;;;;;;;40.60;30.73;;;;;;;;;;5012653;28;20552;-62
2021/06/06 04:36:27;;;;;;;41.40;29.33;;;;;;;;;;5029783;28;20033;-64
2021/06/06 04:38:53;;;;;;;40.35;30.70;;;;;;;;;;5029814;28;20037;-64
2021/06/06 04:41:19;;;;;;;38.60;28.55;;;;;;;;;;5030943;28;20030;-63
2021/06/06 04:43:45;;;;;;;39.42;26.70;;;;;;;;;;5033224;28;20025;-64
2021/06/06 04:46:11;;;;;;;37.15;27.08;;;;;;;;;;5016105;28;20036;-64
2021/06/06 04:48:41;;;;;;;37.80;28.33;;;;;;;;;;5033462;28;20017;-62
2021/06/06 04:51:10;;;;;;;39.83;27.98;;;;;;;;;;5015613;28;20021;-63
2021/06/06 04:53:37;;;;;;;36.80;26.45;;;;;;;;;;5033153;28;20025;-64
2021/06/06 04:56:03;;;;;;;44.17;29.10;;;;;;;;;;5033694;28;20021;-63
2021/06/06 04:58:30;;;;;;;40.28;29.15;;;;;;;;;;5033014;28;20067;-63
2021/06/06 05:00:56;;;;;;;37.28;28.75;;;;;;;;;;5033180;28;20150;-64
2021/06/06 05:03:23;;;;;;;37.83;27.92;;;;;;;;;;5032809;28;20060;-65
2021/06/06 05:05:49;;;;;;;37.38;27.77;;;;;;;;;;5015323;28;20095;-64
2021/06/06 05:08:16;;;;;;;36.95;28.58;;;;;;;;;;5032897;28;20031;-64
2021/06/06 05:10:43;;;;;;;39.50;30.00;;;;;;;;;;5032654;28;20029;-64
2021/06/06 05:13:10;;;;;;;37.95;30.05;;;;;;;;;;5032839;28;20026;-65
2021/06/06 05:15:36;;;;;;;36.15;26.80;;;;;;;;;;5014875;28;20025;-64
2021/06/06 05:18:03;;;;;;;41.80;28.67;;;;;;;;;;5032824;28;20104;-64
2021/06/06 05:20:31;;;;;;;40.80;29.35;;;;;;;;;;5032907;28;20053;-65
2021/06/06 05:22:57;;;;;;;39.05;29.45;;;;;;;;;;5014551;28;20112;-63
2021/06/06 05:25:23;;;;;;;39.40;29.98;;;;;;;;;;5032817;28;20096;-63
2021/06/06 05:27:49;;;;;;;40.75;30.17;;;;;;;;;;5031885;28;20034;-62
2021/06/06 05:30:18;;;;;;;43.08;29.30;;;;;;;;;;5014928;28;20025;-63
2021/06/06 05:32:44;;;;;;;41.13;30.60;;;;;;;;;;5033657;28;20087;-64
2021/06/06 05:35:10;;;;;;;41.42;30.50;;;;;;;;;;5035304;28;20068;-64
2021/06/06 05:37:36;;;;;;;39.92;29.40;;;;;;;;;;5036078;28;20056;-64
2021/06/06 05:40:03;;;;;;;41.20;30.00;;;;;;;;;;5035612;28;20406;-62
2021/06/06 05:42:29;;;;;;;40.42;30.60;;;;;;;;;;5000777;28;20064;-63
2021/06/06 05:44:55;;;;;;;41.88;31.05;;;;;;;;;;5032427;28;20021;-64
2021/06/06 05:47:21;;;;;;;39.65;29.52;;;;;;;;;;5014178;28;20029;-64
2021/06/06 05:49:47;;;;;;;38.65;28.00;;;;;;;;;;5014282;28;20043;-64
2021/06/06 05:52:13;;;;;;;40.03;29.48;;;;;;;;;;5031591;28;20030;-64
2021/06/06 05:54:39;;;;;;;42.90;31.05;;;;;;;;;;5014408;28;20039;-64
2021/06/06 05:57:05;;;;;;;40.45;28.88;;;;;;;;;;5031981;28;20072;-63
2021/06/06 05:59:31;;;;;;;38.90;30.30;;;;;;;;;;5031636;28;20029;-63
2021/06/06 06:01:57;;;;;;;40.03;30.25;;;;;;;;;;5031426;28;20535;-64
2021/06/06 06:04:23;;;;;;;39.80;28.55;;;;;;;;;;5032009;28;20064;-64
2021/06/06 06:06:49;;;;;;;37.97;27.52;;;;;;;;;;5013980;28;20021;-64
2021/06/06 06:09:15;;;;;;;40.58;29.80;;;;;;;;;;5014359;28;20022;-64
2021/06/06 06:11:41;;;;;;;39.60;29.73;;;;;;;;;;5013195;28;20029;-64
2021/06/06 06:14:07;;;;;;;40.13;29.10;;;;;;;;;;5031753;28;20026;-65
2021/06/06 06:16:36;;;;;;;35.35;26.08;;;;;;;;;;5031365;28;20052;-64
2021/06/06 06:19:03;;;;;;;40.70;29.58;;;;;;;;;;5031680;28;20064;-64
2021/06/06 06:21:30;;;;;;;40.40;29.88;;;;;;;;;;5031438;28;20029;-61
2021/06/06 06:23:56;;;;;;;37.17;28.02;;;;;;;;;;5031721;28;20022;-64
2021/06/06 06:26:22;;;;;;;39.28;29.25;;;;;;;;;;5031175;28;20029;-64
2021/06/06 06:28:48;;;;;;;40.35;30.98;;;;;;;;;;5031286;28;20038;-64
2021/06/06 06:31:15;;;;;;;41.50;29.33;;;;;;;;;;5031327;28;20116;-63
2021/06/06 06:33:41;;;;;;;39.78;28.45;;;;;;;;;;5031389;28;20022;-63
2021/06/06 06:36:08;;;;;;;42.22;28.70;;;;;;;;;;5013829;28;20543;-62
2021/06/06 06:38:34;;;;;;;41.60;30.00;;;;;;;;;;5031477;28;20029;-63
2021/06/06 06:41:01;;;;;;;39.97;29.00;;;;;;;;;;5031440;28;20052;-64
2021/06/06 06:43:27;;;;;;;39.92;27.73;;;;;;;;;;5031209;28;20423;-63
2021/06/06 06:45:56;;;;;;;41.53;29.33;;;;;;;;;;5031173;28;20496;-64
2021/06/06 06:48:24;;;;;;;41.35;29.15;;;;;;;;;;5013585;28;20022;-64
2021/06/06 06:50:51;;;;;;;39.22;28.55;;;;;;;;;;5013982;28;20025;-64
2021/06/06 06:53:17;;;;;;;39.20;28.23;;;;;;;;;;5030875;28;20039;-64
2021/06/06 06:55:43;;;;;;;41.72;30.10;;;;;;;;;;5031085;28;20511;-64
2021/06/06 06:58:09;;;;;;;39.15;28.85;;;;;;;;;;5030984;28;20044;-63
2021/06/06 07:00:38;;;;;;;39.35;28.42;;;;;;;;;;5013329;28;20025;-63
2021/06/06 07:03:04;;;;;;;42.83;28.92;;;;;;;;;;5030726;28;20109;-63
2021/06/06 07:05:31;;;;;;;41.55;27.05;;;;;;;;;;5012745;28;20029;-64
2021/06/06 07:07:57;;;;;;;40.28;28.42;;;;;;;;;;5030970;28;20084;-64
2021/06/06 07:10:25;;;;;;;40.25;27.33;;;;;;;;;;5030493;28;20048;-63
2021/06/06 07:12:51;;;;;;;42.92;28.52;;;;;;;;;;5025926;28;20056;-64
2021/06/06 07:15:18;;;;;;;41.47;28.08;;;;;;;;;;5017948;28;20125;-63
2021/06/06 07:17:45;;;;;;;37.45;26.95;;;;;;;;;;5029565;28;20084;-63
2021/06/06 07:20:13;;;;;;;39.80;28.85;;;;;;;;;;5009044;28;20498;-63
2021/06/06 07:22:39;;;;;;;42.78;29.33;;;;;;;;;;5010561;28;20054;-62
2021/06/06 07:25:07;;;;;;;41.53;27.92;;;;;;;;;;5011221;28;20025;-62
2021/06/06 07:27:36;;;;;;;43.63;30.27;;;;;;;;;;5043278;23;20051;-67
2021/06/06 07:30:04;;;;;;;44.10;31.08;;;;;;;;;;5051185;28;20025;-68
2021/06/06 07:32:30;;;;;;;40.25;28.15;;;;;;;;;;5032706;28;20416;-66
2021/06/06 07:34:56;;;;;;;42.63;30.20;;;;;;;;;;5033944;28;20033;-67
2021/06/06 07:37:21;;;;;;;44.03;28.48;;;;;;;;;;5046501;28;20083;-68
2021/06/06 07:39:47;;;;;;;39.60;29.90;;;;;;;;;;5013786;28;20041;-67
2021/06/06 07:42:14;;;;;;;42.28;30.90;;;;;;;;;;5013289;28;20028;-67
2021/06/06 07:44:40;;;;;;;41.90;31.73;;;;;;;;;;5036578;28;20025;-67
2021/06/06 07:47:07;;;;;;;39.08;29.98;;;;;;;;;;5028202;28;20075;-67
2021/06/06 07:49:34;;;;;;;42.10;31.90;;;;;;;;;;5051315;28;20024;-66
2021/06/06 07:52:00;;;;;;;39.70;32.42;;;;;;;;;;5033410;28;20029;-67
2021/06/06 07:54:28;;;;;;;41.50;31.27;;;;;;;;;;5033542;28;20469;-65
2021/06/06 07:56:57;;;;;;;41.75;29.98;;;;;;;;;;5033682;28;20127;-64
2021/06/06 07:59:23;;;;;;;42.25;29.98;;;;;;;;;;5051511;28;20025;-65
2021/06/06 08:01:49;;;;;;;39.17;28.60;;;;;;;;;;5032710;28;20029;-65
2021/06/06 08:04:15;;;;;;;34.00;27.45;;;;;;;;;;5051507;28;20032;-66
2021/06/06 08:06:41;;;;;;;36.53;28.38;;;;;;;;;;5033380;28;20032;-65
2021/06/06 08:09:07;;;;;;;38.10;28.15;;;;;;;;;;5051397;28;20440;-66
2021/06/06 08:11:34;;;;;;;35.40;28.58;;;;;;;;;;5051355;28;20396;-66
2021/06/06 08:14:00;;;;;;;36.83;26.77;;;;;;;;;;5034289;28;20096;-66
2021/06/06 08:16:26;;;;;;;32.70;25.92;;;;;;;;;;5054574;28;20032;-67
2021/06/06 08:18:52;;;;;;;34.53;24.70;;;;;;;;;;5055173;28;20393;-67
2021/06/06 08:21:20;;;;;;;37.10;25.25;;;;;;;;;;5054864;28;20099;-66
2021/06/06 08:23:47;;;;;;;33.50;25.08;;;;;;;;;;5054096;28;20049;-67
2021/06/06 08:26:14;;;;;;;36.95;26.67;;;;;;;;;;5036712;28;20040;-66
2021/06/06 08:28:41;;;;;;;35.28;27.63;;;;;;;;;;5036239;28;20040;-65
2021/06/06 08:31:08;;;;;;;34.67;26.10;;;;;;;;;;5055189;28;20053;-67
2021/06/06 08:33:35;;;;;;;31.75;23.90;;;;;;;;;;5054900;28;20021;-66
2021/06/06 08:36:04;;;;;;;35.25;25.85;;;;;;;;;;5047042;28;20064;-67
2021/06/06 08:38:31;;;;;;;32.20;25.55;;;;;;;;;;5027180;28;20024;-66
2021/06/06 08:41:12;;;;;;;41.40;26.15;;;;;;;;;;5044738;28;20485;-65
2021/06/06 08:43:59;;;;;;;31.38;23.75;;;;;;;;;;5051078;28;20123;-66
2021/06/06 08:46:25;;;;;;;33.78;23.73;;;;;;;;;;5033643;28;20029;-64
2021/06/06 08:48:52;;;;;;;32.88;24.08;;;;;;;;;;5046177;28;20017;-66
2021/06/06 08:51:24;;;;;;;35.25;26.80;;;;;;;;;;5032337;28;20028;-66
2021/06/06 08:53:50;;;;;;;34.53;23.95;;;;;;;;;;5037156;28;20045;-66
2021/06/06 08:56:19;;;;;;;34.35;24.50;;;;;;;;;;5036719;28;20492;-66
2021/06/06 08:58:48;;;;;;;36.20;25.10;;;;;;;;;;5054406;28;20083;-66
2021/06/06 09:01:22;;;;;;;34.60;24.83;;;;;;;;;;5036492;28;20037;-67
2021/06/06 09:03:49;;;;;;;33.00;24.23;;;;;;;;;;5029974;28;20418;-65
2021/06/06 09:06:18;;;;;;;34.47;23.90;;;;;;;;;;5043498;28;20017;-65
2021/06/06 09:08:44;;;;;;;35.15;25.23;;;;;;;;;;5044251;28;20379;-66
2021/06/06 09:11:12;;;;;;;36.08;23.25;;;;;;;;;;5025036;28;20121;-69
2021/06/06 09:13:38;;;;;;;34.15;23.35;;;;;;;;;;5023850;28;20759;-65
2021/06/06 09:16:15;;;;;;;32.17;25.63;;;;;;;;;;5025033;28;20033;-66
2021/06/06 09:18:46;;;;;;;34.35;25.30;;;;;;;;;;5025019;28;20483;-65
2021/06/06 09:21:20;;;;;;;33.33;24.30;;;;;;;;;;5016267;28;20168;-65
2021/06/06 09:23:47;;;;;;;34.28;23.48;;;;;;;;;;5015617;28;20083;-66
2021/06/06 09:26:19;;;;;;;35.10;22.38;;;;;;;;;;5033486;28;20026;-67
2021/06/06 09:28:46;;;;;;;35.05;25.73;;;;;;;;;;5033624;28;20056;-67
2021/06/06 09:31:18;;;;;;;34.42;24.27;;;;;;;;;;5033804;28;20070;-66
2021/06/06 09:33:47;;;;;;;32.90;24.83;;;;;;;;;;5015962;28;20026;-69
2021/06/06 09:36:19;;;;;;;32.47;24.50;;;;;;;;;;5016101;28;20394;-66
2021/06/06 09:38:46;;;;;;;31.73;24.48;;;;;;;;;;5033632;28;20021;-66
2021/06/06 09:41:11;;;;;;;34.58;24.33;;;;;;;;;;5015788;28;20017;-66
2021/06/06 09:43:38;;;;;;;32.92;23.20;;;;;;;;;;5033695;28;20025;-70
2021/06/06 09:46:05;;;;;;;34.45;25.98;;;;;;;;;;5015701;28;20412;-65
2021/06/06 09:48:35;;;;;;;35.08;24.50;;;;;;;;;;5033197;28;20398;-65
2021/06/06 09:51:09;;;;;;;33.25;24.08;;;;;;;;;;5033361;28;20037;-66
2021/06/06 09:53:37;;;;;;;33.20;24.30;;;;;;;;;;5033429;28;20051;-65
2021/06/06 09:56:06;;;;;;;33.38;23.35;;;;;;;;;;5015672;28;20440;-66
2021/06/06 09:58:33;;;;;;;35.97;25.60;;;;;;;;;;5034114;28;20026;-68
2021/06/06 10:01:09;;;;;;;33.20;24.17;;;;;;;;;;5016045;28;20393;-66
2021/06/06 10:03:42;;;;;;;38.95;25.83;;;;;;;;;;5015450;28;20029;-66
2021/06/06 10:06:15;;;;;;;33.38;23.92;;;;;;;;;;5033269;28;20037;-66
2021/06/06 10:08:41;;;;;;;35.50;27.45;;;;;;;;;;5015774;28;20389;-63
2021/06/06 10:11:16;;;;;;;34.13;23.50;;;;;;;;;;5033111;28;20385;-63
2021/06/06 10:13:45;;;;;;;38.05;26.50;;;;;;;;;;5042040;28;20017;-63
2021/06/06 10:16:17;;;;;;;38.05;25.55;;;;;;;;;;5052915;28;20381;-62
2021/06/06 10:18:45;;;;;;;41.60;26.55;;;;;;;;;;5034644;28;20025;-63
2021/06/06 10:21:17;;;;;;;39.38;27.25;;;;;;;;;;5034859;28;20040;-62
2021/06/06 10:23:44;;;;;;;36.13;25.95;;;;;;;;;;5052697;28;20048;-63
2021/06/06 10:26:19;;;;;;;38.23;26.30;;;;;;;;;;5052759;28;20461;-63
2021/06/06 10:28:50;;;;;;;33.40;25.15;;;;;;;;;;5035144;28;20040;-63
2021/06/06 10:31:29;;;;;;;33.60;25.02;;;;;;;;;;5052484;28;20025;-63
2021/06/06 10:33:55;;;;;;;33.85;25.25;;;;;;;;;;5052778;28;20163;-62
2021/06/06 10:36:22;;;;;;;34.10;23.80;;;;;;;;;;5025831;28;20100;-63
2021/06/06 10:38:48;;;;;;;32.95;25.20;;;;;;;;;;5037250;28;20169;-64
2021/06/06 10:41:17;;;;;;;35.92;26.10;;;;;;;;;;5047018;28;20447;-64
2021/06/06 10:43:57;;;;;;;35.00;24.02;;;;;;;;;;5052222;28;20464;-65
2021/06/06 10:46:31;;;;;;;32.40;22.67;;;;;;;;;;5052420;28;20173;-63
2021/06/06 10:49:20;;;;;;;32.65;23.42;;;;;;;;;;5052474;28;20032;-63
2021/06/06 10:51:55;;;;;;;33.28;23.42;;;;;;;;;;5021295;28;20191;-63
2021/06/06 10:54:36;;;;;;;33.05;22.67;;;;;;;;;;5052280;28;20027;-64
2021/06/06 10:57:13;;;;;;;32.75;22.92;;;;;;;;;;5052046;28;20366;-60
2021/06/06 10:59:55;;;;;;;32.28;22.70;;;;;;;;;;5051919;28;20052;-64
2021/06/06 11:02:39;;;;;;;31.38;21.48;;;;;;;;;;5051845;28;20028;-64
2021/06/06 11:05:28;;;;;;;29.35;19.42;;;;;;;;;;5034435;28;20606;-65
2021/06/06 11:07:54;;;;;;;29.90;20.42;;;;;;;;;;5021612;28;20043;-64
2021/06/06 11:10:20;;;;;;;28.80;19.90;;;;;;;;;;5044672;28;20100;-64
2021/06/06 11:12:48;;;;;;;32.17;22.20;;;;;;;;;;5041213;28;20038;-65
2021/06/06 11:15:29;;;;;;;33.67;22.23;;;;;;;;;;5044091;28;20075;-63
2021/06/06 11:18:06;;;;;;;31.05;21.55;;;;;;;;;;4689675;28;10000079;-64
2021/06/06 11:20:33;;;;;;;30.08;21.60;;;;;;;;;;5019884;28;20025;-63
2021/06/06 11:23:11;;;;;;;31.55;20.15;;;;;;;;;;5042983;28;20017;-63
2021/06/06 11:25:37;;;;;;;27.52;19.20;;;;;;;;;;5048786;28;20112;-63
2021/06/06 11:28:05;;;;;;;27.52;18.92;;;;;;;;;;5048485;28;20547;-63
2021/06/06 11:30:32;;;;;;;25.60;19.67;;;;;;;;;;5040055;28;20104;-62
2021/06/06 11:33:00;;;;;;;25.50;18.55;;;;;;;;;;5038300;28;20238;-63
2021/06/06 11:35:35;;;;;;;27.00;18.00;;;;;;;;;;5034927;28;20029;-62
2021/06/06 11:38:15;;;;;;;24.70;17.23;;;;;;;;;;5040689;28;20057;-62
2021/06/06 11:40:46;;;;;;;29.52;18.67;;;;;;;;;;5024228;28;20115;-62
2021/06/06 11:43:15;;;;;;;24.35;17.42;;;;;;;;;;5040480;28;20051;-62
2021/06/06 11:45:44;;;;;;;24.25;17.67;;;22.40;99.90;;;;;;5037344;28;20320;-62
2021/06/06 11:48:33;;;;;;;23.42;17.85;;;22.60;99.90;;;;;;5020094;28;20028;-62
2021/06/06 11:51:00;;;;;;;23.23;17.20;;;22.10;99.90;;;;;;5041354;28;20033;-61
2021/06/06 11:53:41;;;;;;;23.00;16.63;;;22.10;99.90;;;;;;5023576;28;20029;-61
2021/06/06 11:56:33;;;;;;;24.70;17.27;;;22.30;99.90;;;;;;5023775;28;20071;-63
2021/06/06 11:59:05;;;;;;;24.23;17.33;;;21.50;99.90;;;;;;5019478;28;20038;-62
2021/06/06 12:01:43;;;;;;;23.38;17.08;;;21.50;99.90;;;;;;5014186;28;20052;-59
2021/06/06 12:04:10;;;;;;;20.92;14.63;;;21.40;99.90;;;;;;5043556;28;20082;-61
2021/06/06 12:06:39;;;;;;;24.30;17.58;;;;;;;;;;5035397;28;20128;-62
2021/06/06 12:09:16;;;;;;;23.17;16.35;;;;;;;;;;5053915;28;20048;-59
2021/06/06 12:11:42;;;;;;;24.65;16.02;;;;;;;;;;5036278;28;20025;-61
2021/06/06 12:14:08;;;;;;;22.58;15.80;;;;;;;;;;5055261;28;20031;-62
2021/06/06 12:16:34;;;;;;;23.38;16.63;;;;;;;;;;5055257;28;20024;-60
2021/06/06 12:19:10;;;;;;;23.80;16.65;;;;;;;;;;5054935;28;20029;-62
2021/06/06 12:21:38;;;;;;;23.67;16.85;;;;;;;;;;5055310;28;20044;-61
2021/06/06 12:24:04;;;;;;;22.63;16.60;;;;;;;;;;5055064;28;20056;-63
2021/06/06 12:26:33;;;;;;;24.77;17.20;;;;;;;;;;4703669;28;9999896;-62
2021/06/06 12:28:59;;;;;;;;;;;;;;;;;;5052660;28;20059;-63
2021/06/06 12:31:33;;;;;;;23.15;16.08;;;;;;;;;;5052256;28;20319;-62
2021/06/06 12:34:28;;;;;;;25.05;17.15;;;;;;;;;;5034336;28;20079;-63
2021/06/06 12:36:59;;;;;;;22.65;15.93;;;;;;;;;;5031739;28;20109;-62
2021/06/06 12:39:26;;;;;;;24.52;16.60;;;;;;;;;;5033583;28;20044;-61
2021/06/06 12:41:54;;;;;;;26.60;18.60;;;;;;;;;;5032166;28;20068;-62
2021/06/06 12:44:22;;;;;;;26.37;17.67;;;;;;;;;;5032258;28;20347;-62
2021/06/06 12:46:56;;;;;;;23.85;17.00;;;;;;;;;;5022902;28;20311;-63
2021/06/06 12:49:36;;;;;;;25.52;17.45;;;;;;;;;;5042257;28;20033;-63
2021/06/06 12:52:15;;;;;;;24.80;18.08;;;;;;;;;;5024066;28;20123;-62
2021/06/06 12:54:41;;;;;;;24.70;17.50;;;;;;;;;;5042021;28;20025;-63
2021/06/06 12:57:21;;;;;;;27.95;17.83;;;;;;;;;;5040574;28;20120;-63
2021/06/06 12:59:48;;;;;;;26.42;17.45;;;;;;;;;;5040755;28;20033;-61
2021/06/06 13:02:14;;;;;;;26.55;19.17;;;;;;;;;;5019898;28;20057;-63
2021/06/06 13:04:41;;;;;;;26.27;17.70;;;;;;;;;;5040287;28;20021;-62
2021/06/06 13:07:24;;;;;;;25.92;18.48;;;;;;;;;;5031405;28;20033;-61
2021/06/06 13:09:51;;;;;;;27.38;19.92;;;;;;;;;;5047813;28;20111;-63
2021/06/06 13:12:23;;;;;;;25.70;18.55;;;;;;;;;;5051350;28;20376;-62
2021/06/06 13:14:54;;;;;;;25.83;17.23;;;;;;;;;;5050892;28;20040;-63
2021/06/06 13:17:26;;;;;;;27.92;18.80;;;;;;;;;;5032816;28;20028;-63
2021/06/06 13:20:04;;;;;;;26.88;19.40;;;;;;;;;;5050814;28;20036;-63
2021/06/06 13:22:31;;;;;;;26.02;18.02;;;;;;;;;;5050697;28;20025;-62
2021/06/06 13:24:57;;;;;;;25.08;18.15;;;;;;;;;;5032954;28;20033;-62
2021/06/06 13:30:22;;;;;;;26.10;17.63;;;;;;;;;;5047601;28;20417;-63
2021/06/06 13:33:09;;;;;;;25.67;18.42;;;;;;;;;;5049026;28;20025;-64
2021/06/06 13:35:35;;;;;;;27.13;18.13;;;;;;;;;;5051358;28;20028;-64
2021/06/06 13:38:01;;;;;;;23.67;16.92;;;;;;;;;;5051938;28;20092;-62
2021/06/06 13:40:30;;;;;;;25.42;16.98;;;;;;;;;;5052567;28;20100;-59
2021/06/06 13:42:57;;;;;;;23.90;15.88;;;;;;;;;;5052518;28;20128;-62
2021/06/06 13:45:26;;;;;;;24.30;16.75;;;;;;;;;;5052495;28;20021;-61
2021/06/06 13:47:53;;;;;;;22.90;16.05;;;;;;;;;;5052392;28;20473;-62
2021/06/06 13:50:20;;;;;;;23.52;15.63;;;;;;;;;;5052324;28;20025;-61
2021/06/06 13:52:46;;;;;;;23.30;16.55;;;;;;;;;;5052546;28;20543;-62
2021/06/06 13:55:15;;;;;;;22.17;16.70;;;;;;;;;;5034999;28;20029;-62
2021/06/06 13:57:41;;;;;;;23.10;16.08;;;;;;;;;;5034469;28;20021;-62
2021/06/06 14:00:09;;;;;;;22.58;16.20;;;;;;;;;;5052406;28;20029;-61
2021/06/06 14:02:35;;;;;;;24.85;17.23;;;;;;;;;;5052439;28;20017;-62
2021/06/06 14:05:01;;;;;;;22.88;16.42;;;;;;;;;;5033802;28;20397;-61
2021/06/06 14:07:27;;;;;;;26.48;16.75;;;;;;;;;;5033599;28;20027;-61
2021/06/06 14:09:55;;;;;;;27.20;17.25;;;;;;;;;;5051904;28;20431;-64
2021/06/06 14:12:21;;;;;;;24.27;17.63;;;;;;;;;;5051617;28;20031;-62
2021/06/06 14:14:47;;;;;;;26.30;16.63;;;;;;;;;;5035687;28;20396;-63
2021/06/06 14:17:13;;;;;;;25.38;16.60;;;;;;;;;;5028184;28;20095;-60
2021/06/06 14:19:39;;;;;;;23.77;16.95;;;;;;;;;;5041761;28;20024;-62
2021/06/06 14:22:06;;;;;;;25.50;17.30;;;;;;;;;;5051704;28;20037;-63
2021/06/06 14:24:34;;;;;;;27.27;18.63;;;;;;;;;;4701519;28;10000015;-62
2021/06/06 14:27:05;;;;;;;26.05;18.33;;;;;;;;;;5048763;28;20489;-61